Aviation Digital Data Service (ADDS)

Output produced by METARs form (0537 UTC 24 January 2019)
found at http://www.aviationweather.gov/metar/data/
 
METAR text: FBFT 240500Z 14005KT CAVOK 20/11 Q1015
Conditions at: FBFT (FRANCISTOWN , BW) observed 0500 UTC 24 January 2019
Temperature: 20.0°C (68°F)
Dewpoint: 11.0°C (52°F) [RH = 56%]
Pressure (altimeter): 29.97 inches Hg (1015.0 mb)
Winds: from the SE (140 degrees) at 6 MPH (5 knots; 2.6 m/s)
Visibility: 6 or more miles (10+ km)
Ceiling: ceiling and visibility are OK
Clouds: unknown
Weather: no significant weather observed at this time

METAR text: FBFT 231600Z 16007KT 120V210 CAVOK 34/09 Q1012
Conditions at: FBFT (FRANCISTOWN , BW) observed 1600 UTC 23 January 2019
Temperature: 34.0°C (93°F)
Dewpoint: 9.0°C (48°F) [RH = 22%]
Pressure (altimeter): 29.88 inches Hg (1012.0 mb)
Winds: from the SSE (160 degrees) at 8 MPH (7 knots; 3.6 m/s)
Visibility: 6 or more miles (10+ km)
Ceiling: ceiling and visibility are OK
Clouds: unknown
Weather: no significant weather observed at this time

METAR text: FBFT 231500Z 09008KT 060V120 9999 FEW035 35/09 Q1012
Conditions at: FBFT (FRANCISTOWN , BW) observed 1500 UTC 23 January 2019
Temperature: 35.0°C (95°F)
Dewpoint: 9.0°C (48°F) [RH = 20%]
Pressure (altimeter): 29.88 inches Hg (1012.0 mb)
Winds: from the E (90 degrees) at 9 MPH (8 knots; 4.1 m/s)
Visibility: 6 or more miles (10+ km)
Ceiling: at least 12,000 feet AGL
Clouds: few clouds at 3500 feet AGL
Weather: no significant weather observed at this time

METAR text: FBFT 231400Z 15009KT 9999 FEW035 35/08 Q1012
Conditions at: FBFT (FRANCISTOWN , BW) observed 1400 UTC 23 January 2019
Temperature: 35.0°C (95°F)
Dewpoint: 8.0°C (46°F) [RH = 19%]
Pressure (altimeter): 29.88 inches Hg (1012.0 mb)
Winds: from the SSE (150 degrees) at 10 MPH (9 knots; 4.6 m/s)
Visibility: 6 or more miles (10+ km)
Ceiling: at least 12,000 feet AGL
Clouds: few clouds at 3500 feet AGL
Weather: no significant weather observed at this time

METAR text: FBFT 231300Z 18009KT 110V230 9999 FEW035 35/07 Q1013
Conditions at: FBFT (FRANCISTOWN , BW) observed 1300 UTC 23 January 2019
Temperature: 35.0°C (95°F)
Dewpoint: 7.0°C (45°F) [RH = 18%]
Pressure (altimeter): 29.91 inches Hg (1013.0 mb)
Winds: from the S (180 degrees) at 10 MPH (9 knots; 4.6 m/s)
Visibility: 6 or more miles (10+ km)
Ceiling: at least 12,000 feet AGL
Clouds: few clouds at 3500 feet AGL
Weather: no significant weather observed at this time

METAR text: FBFT 231200Z VRB05KT 9999 FEW035 35/10 Q1014
Conditions at: FBFT (FRANCISTOWN , BW) observed 1200 UTC 23 January 2019
Temperature: 35.0°C (95°F)
Dewpoint: 10.0°C (50°F) [RH = 22%]
Pressure (altimeter): 29.94 inches Hg (1014.0 mb)
Winds: variable direction winds at 6 MPH (5 knots; 2.6 m/s)
Visibility: 6 or more miles (10+ km)
Ceiling: at least 12,000 feet AGL
Clouds: few clouds at 3500 feet AGL
Weather: no significant weather observed at this time

METAR text: FBFT 231100Z 03005KT 330V080 9999 FEW030 34/09 Q1015
Conditions at: FBFT (FRANCISTOWN , BW) observed 1100 UTC 23 January 2019
Temperature: 34.0°C (93°F)
Dewpoint: 9.0°C (48°F) [RH = 22%]
Pressure (altimeter): 29.97 inches Hg (1015.0 mb)
Winds: from the NNE (30 degrees) at 6 MPH (5 knots; 2.6 m/s)
Visibility: 6 or more miles (10+ km)
Ceiling: at least 12,000 feet AGL
Clouds: few clouds at 3000 feet AGL
Weather: no significant weather observed at this time

METAR text: FBFT 231000Z VRB05KT CAVOK 33/10 Q1015
Conditions at: FBFT (FRANCISTOWN , BW) observed 1000 UTC 23 January 2019
Temperature: 33.0°C (91°F)
Dewpoint: 10.0°C (50°F) [RH = 24%]
Pressure (altimeter): 29.97 inches Hg (1015.0 mb)
Winds: variable direction winds at 6 MPH (5 knots; 2.6 m/s)
Visibility: 6 or more miles (10+ km)
Ceiling: ceiling and visibility are OK
Clouds: unknown
Weather: no significant weather observed at this time

METAR text: FBFT 230900Z VRB04KT CAVOK 31/09 Q1016
Conditions at: FBFT (FRANCISTOWN , BW) observed 0900 UTC 23 January 2019
Temperature: 31.0°C (88°F)
Dewpoint: 9.0°C (48°F) [RH = 26%]
Pressure (altimeter): 30.00 inches Hg (1016.0 mb)
Winds: variable direction winds at 5 MPH (4 knots; 2.1 m/s)
Visibility: 6 or more miles (10+ km)
Ceiling: ceiling and visibility are OK
Clouds: unknown
Weather: no significant weather observed at this time

METAR text: FBFT 230800Z 14005KT 070V220 CAVOK 30/11 Q1017
Conditions at: FBFT (FRANCISTOWN , BW) observed 0800 UTC 23 January 2019
Temperature: 30.0°C (86°F)
Dewpoint: 11.0°C (52°F) [RH = 31%]
Pressure (altimeter): 30.03 inches Hg (1017.0 mb)
Winds: from the SE (140 degrees) at 6 MPH (5 knots; 2.6 m/s)
Visibility: 6 or more miles (10+ km)
Ceiling: ceiling and visibility are OK
Clouds: unknown
Weather: no significant weather observed at this time

METAR text: FBFT 230700Z VRB03KT CAVOK 28/14 Q1017
Conditions at: FBFT (FRANCISTOWN , BW) observed 0700 UTC 23 January 2019
Temperature: 28.0°C (82°F)
Dewpoint: 14.0°C (57°F) [RH = 42%]
Pressure (altimeter): 30.03 inches Hg (1017.0 mb)
Winds: variable direction winds at 3 MPH (3 knots; 1.5 m/s)
Visibility: 6 or more miles (10+ km)
Ceiling: ceiling and visibility are OK
Clouds: unknown
Weather: no significant weather observed at this time

METAR text: FBFT 230600Z 32004KT CAVOK 25/13 Q1017
Conditions at: FBFT (FRANCISTOWN , BW) observed 0600 UTC 23 January 2019
Temperature: 25.0°C (77°F)
Dewpoint: 13.0°C (55°F) [RH = 47%]
Pressure (altimeter): 30.03 inches Hg (1017.0 mb)
Winds: from the NW (320 degrees) at 5 MPH (4 knots; 2.1 m/s)
Visibility: 6 or more miles (10+ km)
Ceiling: ceiling and visibility are OK
Clouds: unknown
Weather: no significant weather observed at this time

METAR text: FBFT 230500Z VRB02KT CAVOK 19/12 Q1016
Conditions at: FBFT (FRANCISTOWN , BW) observed 0500 UTC 23 January 2019
Temperature: 19.0°C (66°F)
Dewpoint: 12.0°C (54°F) [RH = 64%]
Pressure (altimeter): 30.00 inches Hg (1016.0 mb)
Winds: variable direction winds at 2 MPH (2 knots; 1.0 m/s)
Visibility: 6 or more miles (10+ km)
Ceiling: ceiling and visibility are OK
Clouds: unknown
Weather: no significant weather observed at this time

Forecast for: FBFT (FRANCISTOWN , BW)
Text: TAF FBFT 240300Z 2406/2415 34004KT CAVOK
Forecast period: 0600 to 1500 UTC 24 January 2019
Forecast type: FROM: standard forecast or significant change
Winds: from the NNW (340 degrees) at 5 MPH (4 knots; 2.1 m/s)
Visibility: 6 or more miles 10+ km)
Ceiling: unknown
Clouds: missing
Weather: NSW  (no significant weather)